createdAt,value
2019-03-09T00:00:57.588Z,8.85
2019-03-09T00:03:25.895Z,6.70
2019-03-09T00:05:54.265Z,7.47
2019-03-09T00:08:22.568Z,6.05
2019-03-09T00:10:51.248Z,5.40
2019-03-09T00:13:19.854Z,5.67
2019-03-09T00:15:48.159Z,4.97
2019-03-09T00:18:16.814Z,4.55
2019-03-09T00:20:45.075Z,4.70
2019-03-09T00:23:31.609Z,4.00
2019-03-09T00:26:19.840Z,4.60
2019-03-09T00:29:01.696Z,4.25
2019-03-09T00:31:43.675Z,4.22
2019-03-09T00:34:12.209Z,3.27
2019-03-09T00:36:40.643Z,3.92
2019-03-09T00:39:09.278Z,3.67
2019-03-09T00:41:37.887Z,3.55
2019-03-09T00:44:06.200Z,3.87
2019-03-09T00:46:34.471Z,3.58
2019-03-09T00:49:02.882Z,3.92
2019-03-09T00:51:31.148Z,4.50
2019-03-09T00:53:59.715Z,5.65
2019-03-09T00:56:28.025Z,4.97
2019-03-09T00:58:56.268Z,5.50
2019-03-09T01:01:24.516Z,6.67
2019-03-09T01:03:53.064Z,6.78
2019-03-09T01:06:21.365Z,7.25
2019-03-09T01:08:49.610Z,8.13
2019-03-09T01:11:17.850Z,9.45
2019-03-09T01:13:46.519Z,8.20
2019-03-09T01:16:14.752Z,8.70
2019-03-09T01:18:43.016Z,8.30
2019-03-09T01:21:11.298Z,7.87
2019-03-09T01:23:39.540Z,6.95
2019-03-09T01:26:07.792Z,7.83
2019-03-09T01:28:36.047Z,8.53
2019-03-09T01:31:04.960Z,8.15
2019-03-09T01:33:33.213Z,8.05
2019-03-09T01:36:01.474Z,7.97
2019-03-09T01:38:29.756Z,8.13
2019-03-09T01:40:58.050Z,8.23
2019-03-09T01:43:26.342Z,8.88
2019-03-09T01:45:54.596Z,9.05
2019-03-09T01:48:22.862Z,8.85
2019-03-09T01:50:51.142Z,9.80
2019-03-09T01:53:19.725Z,9.08
2019-03-09T01:55:48.313Z,9.88
2019-03-09T01:58:16.569Z,9.20
2019-03-09T02:00:45.169Z,9.33
2019-03-09T02:03:13.507Z,10.82
2019-03-09T02:05:41.799Z,10.10
2019-03-09T02:08:10.052Z,9.35
2019-03-09T02:10:38.337Z,9.93
2019-03-09T02:13:06.579Z,9.88
2019-03-09T02:15:34.843Z,9.20
2019-03-09T02:18:03.425Z,9.80
2019-03-09T02:20:31.683Z,10.05
2019-03-09T02:23:00.280Z,9.48
2019-03-09T02:25:28.883Z,8.85
2019-03-09T02:27:57.128Z,9.35
2019-03-09T02:30:25.381Z,10.15
2019-03-09T02:32:53.682Z,9.85
2019-03-09T02:35:22.024Z,9.30
2019-03-09T02:37:50.270Z,10.23
2019-03-09T02:40:26.220Z,8.95
2019-03-09T02:42:54.474Z,8.95
2019-03-09T02:45:24.835Z,9.78
2019-03-09T02:47:53.108Z,8.73
2019-03-09T02:50:21.653Z,9.98
2019-03-09T02:52:49.951Z,8.30
2019-03-09T02:55:18.219Z,9.53
2019-03-09T02:57:46.491Z,9.23
2019-03-09T03:00:19.095Z,10.13
2019-03-09T03:02:51.453Z,8.70
2019-03-09T03:05:19.706Z,8.55
2019-03-09T03:07:47.997Z,8.25
2019-03-09T03:10:16.235Z,8.50
2019-03-09T03:12:44.495Z,8.73
2019-03-09T03:15:31.326Z,8.28
2019-03-09T03:17:59.595Z,8.15
2019-03-09T03:20:27.892Z,8.33
2019-03-09T03:22:56.481Z,8.68
2019-03-09T03:25:24.725Z,8.10
2019-03-09T03:27:53.013Z,8.68
2019-03-09T03:30:21.325Z,8.90
2019-03-09T03:32:49.955Z,7.70
2019-03-09T03:35:18.275Z,8.35
2019-03-09T03:37:46.536Z,7.95
2019-03-09T03:40:14.776Z,8.40
2019-03-09T03:42:43.027Z,8.05
2019-03-09T03:45:12.825Z,8.28
2019-03-09T03:47:41.421Z,9.03
2019-03-09T03:50:09.710Z,9.35
2019-03-09T03:52:38.361Z,9.35
2019-03-09T03:55:09.169Z,9.50
2019-03-09T03:57:37.512Z,9.13
2019-03-09T04:00:11.353Z,7.62
2019-03-09T04:02:39.998Z,6.15
2019-03-09T04:05:08.346Z,6.65
2019-03-09T04:07:37.032Z,6.47
2019-03-09T04:10:08.124Z,5.10
2019-03-09T04:12:36.553Z,4.78
2019-03-09T04:15:06.669Z,4.60
2019-03-09T04:17:34.925Z,4.17
2019-03-09T04:20:04.148Z,4.58
2019-03-09T04:22:32.405Z,4.58
2019-03-09T04:25:00.678Z,3.60
2019-03-09T04:27:29.019Z,3.58
2019-03-09T04:29:57.266Z,4.37
2019-03-09T04:32:25.578Z,3.80
2019-03-09T04:34:53.889Z,3.65
2019-03-09T04:37:22.209Z,4.35
2019-03-09T04:39:50.560Z,4.45
2019-03-09T04:42:19.130Z,4.55
2019-03-09T04:44:47.419Z,3.77
2019-03-09T04:47:15.732Z,4.08
2019-03-09T04:49:44.308Z,3.67
2019-03-09T04:52:12.543Z,3.52
2019-03-09T04:54:41.168Z,4.15
2019-03-09T04:57:09.443Z,4.42
2019-03-09T04:59:37.760Z,3.22
2019-03-09T05:02:06.044Z,3.50
2019-03-09T05:04:39.782Z,3.95
2019-03-09T05:07:08.120Z,3.30
2019-03-09T05:09:54.424Z,4.15
2019-03-09T05:12:22.704Z,3.70
2019-03-09T05:14:51.215Z,3.52
2019-03-09T05:17:19.451Z,3.62
2019-03-09T05:19:48.103Z,3.52
2019-03-09T05:22:16.686Z,3.10
2019-03-09T05:24:44.931Z,3.62
2019-03-09T05:27:13.204Z,3.40
2019-03-09T05:29:41.823Z,3.42
2019-03-09T05:32:10.057Z,3.33
2019-03-09T05:34:38.316Z,3.52
2019-03-09T05:37:06.588Z,4.15
2019-03-09T05:39:34.835Z,3.52
2019-03-09T05:42:03.081Z,3.20
2019-03-09T05:44:31.660Z,3.58
2019-03-09T05:46:59.900Z,4.95
2019-03-09T05:49:28.201Z,2.92
2019-03-09T05:52:19.155Z,3.65
2019-03-09T05:54:47.421Z,3.47
2019-03-09T05:57:15.660Z,3.83
2019-03-09T05:59:44.291Z,3.92
2019-03-09T06:02:12.543Z,3.25
2019-03-09T06:04:40.821Z,4.03
2019-03-09T06:07:09.068Z,4.05
2019-03-09T06:09:37.320Z,3.77
2019-03-09T06:12:05.561Z,4.50
2019-03-09T06:14:33.885Z,3.40
2019-03-09T06:17:02.145Z,4.42
2019-03-09T06:19:30.679Z,4.45
2019-03-09T06:21:58.991Z,5.22
2019-03-09T06:24:27.288Z,4.35
2019-03-09T06:26:55.811Z,3.95
2019-03-09T06:29:24.052Z,4.83
2019-03-09T06:32:29.534Z,3.52
2019-03-09T06:34:58.128Z,3.90
2019-03-09T06:37:26.393Z,4.50
2019-03-09T06:39:56.777Z,3.37
2019-03-09T06:42:37.186Z,4.15
2019-03-09T06:45:08.526Z,3.67
2019-03-09T06:47:36.770Z,3.60
2019-03-09T06:50:13.554Z,3.77
2019-03-09T06:52:41.852Z,4.45
2019-03-09T06:55:14.315Z,4.10
2019-03-09T06:57:42.554Z,3.12
2019-03-09T07:00:34.860Z,3.83
2019-03-09T07:03:03.432Z,3.90
2019-03-09T07:05:31.700Z,3.12
2019-03-09T07:08:19.370Z,4.50
2019-03-09T07:10:47.638Z,3.75
2019-03-09T07:13:15.881Z,4.35
2019-03-09T07:15:44.192Z,3.02
2019-03-09T07:18:16.815Z,3.37
2019-03-09T07:20:45.468Z,2.98
2019-03-09T07:23:13.713Z,3.55
2019-03-09T07:25:42.132Z,3.45
2019-03-09T07:28:12.230Z,3.62
2019-03-09T07:30:40.516Z,3.30
2019-03-09T07:33:08.760Z,3.02
2019-03-09T07:35:37.063Z,4.65
2019-03-09T07:38:05.722Z,3.15
2019-03-09T07:40:33.964Z,3.35
2019-03-09T07:43:04.206Z,3.75
2019-03-09T07:45:32.188Z,3.77
2019-03-09T07:48:00.447Z,3.65
2019-03-09T07:50:28.693Z,5.05
2019-03-09T07:52:57.036Z,3.60
2019-03-09T07:55:25.380Z,4.78
2019-03-09T07:58:02.056Z,4.42
2019-03-09T08:00:30.677Z,4.40
2019-03-09T08:02:59.094Z,4.50
2019-03-09T08:05:27.335Z,4.47
2019-03-09T08:07:55.588Z,3.35
2019-03-09T08:10:30.807Z,4.65
2019-03-09T08:15:26.989Z,3.92
2019-03-09T08:17:55.933Z,4.28
2019-03-09T08:20:24.277Z,4.55
2019-03-09T08:22:52.630Z,5.35
2019-03-09T08:25:22.068Z,5.08
2019-03-09T08:27:50.317Z,4.58
2019-03-09T08:30:26.670Z,4.42
2019-03-09T08:32:54.922Z,4.90
2019-03-09T08:35:23.267Z,4.10
2019-03-09T08:37:52.457Z,4.33
2019-03-09T08:40:21.759Z,4.00
2019-03-09T08:42:50.062Z,4.30
2019-03-09T08:45:20.051Z,4.10
2019-03-09T08:47:52.010Z,3.85
2019-03-09T08:50:19.881Z,3.25
2019-03-09T08:52:48.189Z,3.45
2019-03-09T08:55:17.978Z,4.12
2019-03-09T08:57:46.556Z,3.85
2019-03-09T09:00:20.523Z,4.35
2019-03-09T09:02:49.104Z,4.17
2019-03-09T09:05:17.352Z,4.40
2019-03-09T09:07:45.608Z,3.45
2019-03-09T09:10:13.849Z,3.67
2019-03-09T09:12:42.107Z,4.15
2019-03-09T09:15:15.214Z,4.03
2019-03-09T09:17:44.006Z,2.98
2019-03-09T09:20:20.260Z,4.05
2019-03-09T09:22:48.837Z,3.67
2019-03-09T09:25:17.084Z,2.98
2019-03-09T09:27:45.342Z,4.78
2019-03-09T09:30:16.533Z,4.12
2019-03-09T09:32:44.780Z,3.95
2019-03-09T09:35:13.752Z,3.92
2019-03-09T09:37:42.083Z,3.87
2019-03-09T09:40:13.269Z,3.70
2019-03-09T09:42:41.571Z,3.90
2019-03-09T09:45:11.932Z,3.75
2019-03-09T09:47:42.422Z,3.52
2019-03-09T09:50:15.165Z,3.85
2019-03-09T09:52:43.719Z,3.33
2019-03-09T09:55:13.929Z,3.33
2019-03-09T09:57:42.227Z,4.42
2019-03-09T10:00:15.932Z,4.05
2019-03-09T10:02:44.219Z,4.37
2019-03-09T10:05:13.372Z,3.47
2019-03-09T10:07:41.656Z,3.30
2019-03-09T10:10:13.041Z,3.72
2019-03-09T10:12:41.275Z,3.33
2019-03-09T10:15:21.216Z,2.90
2019-03-09T10:17:49.470Z,3.45
2019-03-09T10:20:17.757Z,3.70
2019-03-09T10:22:46.033Z,3.22
2019-03-09T10:25:14.561Z,4.45
2019-03-09T10:27:43.023Z,2.90
2019-03-09T10:30:14.742Z,3.75
2019-03-09T10:32:42.981Z,3.05
2019-03-09T10:35:11.227Z,3.67
2019-03-09T10:37:39.493Z,3.55
2019-03-09T10:40:09.627Z,3.70
2019-03-09T10:42:37.918Z,3.27
2019-03-09T10:45:11.516Z,3.83
2019-03-09T10:47:39.785Z,3.40
2019-03-09T10:50:10.484Z,3.42
2019-03-09T10:52:38.744Z,3.52
2019-03-09T10:55:10.372Z,4.15
2019-03-09T10:57:38.658Z,3.55
2019-03-09T11:00:13.000Z,3.67
2019-03-09T11:02:41.256Z,3.60
2019-03-09T11:05:10.850Z,3.17
2019-03-09T11:07:39.161Z,3.80
2019-03-09T11:10:08.255Z,3.58
2019-03-09T11:12:36.513Z,3.75
2019-03-09T11:15:06.396Z,3.47
2019-03-09T11:17:34.666Z,4.28
2019-03-09T11:20:03.092Z,2.87
2019-03-09T11:22:31.642Z,3.42
2019-03-09T11:25:03.345Z,3.62
2019-03-09T11:27:30.240Z,3.95
2019-03-09T11:29:58.503Z,3.52
2019-03-09T11:32:26.860Z,3.85
2019-03-09T11:34:55.165Z,4.10
2019-03-09T11:37:23.503Z,4.12
2019-03-09T11:39:54.484Z,4.50
2019-03-09T11:42:22.789Z,3.67
2019-03-09T11:44:51.143Z,4.00
2019-03-09T11:47:19.372Z,3.80
2019-03-09T11:49:47.632Z,3.45
2019-03-09T11:52:19.900Z,4.35
2019-03-09T11:54:45.864Z,3.70
2019-03-09T11:57:14.163Z,3.83
2019-03-09T11:59:42.779Z,3.77
2019-03-09T12:02:11.469Z,3.35
2019-03-09T12:04:46.911Z,2.77
2019-03-09T12:07:09.772Z,3.30
2019-03-09T12:09:38.077Z,3.45
2019-03-09T12:12:06.379Z,3.60
2019-03-09T12:14:34.645Z,3.55
2019-03-09T12:17:02.960Z,3.27
2019-03-09T12:19:31.334Z,3.00
2019-03-09T12:21:59.909Z,4.00
2019-03-09T12:24:28.492Z,4.22
2019-03-09T12:26:56.741Z,3.20
2019-03-09T12:29:25.016Z,4.08
2019-03-09T12:31:53.314Z,3.90
2019-03-09T12:34:21.620Z,3.15
2019-03-09T12:36:49.902Z,2.90
2019-03-09T12:39:18.199Z,3.65
2019-03-09T12:41:46.832Z,3.27
2019-03-09T12:44:15.112Z,2.72
2019-03-09T12:46:43.364Z,3.40
2019-03-09T12:49:11.664Z,3.00
2019-03-09T12:51:39.959Z,3.17
2019-03-09T12:54:08.528Z,3.15
2019-03-09T12:56:36.794Z,3.27
2019-03-09T12:59:05.392Z,2.98
2019-03-09T13:01:33.972Z,3.50
2019-03-09T13:04:02.233Z,3.37
2019-03-09T13:06:30.532Z,2.72
2019-03-09T13:08:59.137Z,3.60
2019-03-09T13:11:27.447Z,3.45
2019-03-09T13:13:55.700Z,3.45
2019-03-09T13:16:24.241Z,3.90
2019-03-09T13:18:52.524Z,3.33
2019-03-09T13:21:20.776Z,3.35
2019-03-09T13:23:49.040Z,3.55
2019-03-09T13:26:17.284Z,3.20
2019-03-09T13:28:45.544Z,3.42
2019-03-09T13:31:13.811Z,4.08
2019-03-09T13:33:42.420Z,3.90
2019-03-09T13:36:10.684Z,4.03
2019-03-09T13:38:39.241Z,3.75
2019-03-09T13:41:07.483Z,4.00
2019-03-09T13:43:35.744Z,4.12
2019-03-09T13:46:04.044Z,3.77
2019-03-09T13:48:32.352Z,3.80
2019-03-09T13:51:00.609Z,3.50
2019-03-09T13:53:28.856Z,3.55
2019-03-09T13:55:57.112Z,4.45
2019-03-09T13:58:25.364Z,3.95
2019-03-09T14:00:53.631Z,4.08
2019-03-09T14:03:21.928Z,3.92
2019-03-09T14:05:50.165Z,4.20
2019-03-09T14:08:18.426Z,4.47
2019-03-09T14:10:46.656Z,4.60
2019-03-09T14:13:14.908Z,5.08
2019-03-09T14:15:43.151Z,4.80
2019-03-09T14:18:11.459Z,4.25
2019-03-09T14:20:39.830Z,4.33
2019-03-09T14:23:08.160Z,4.53
2019-03-09T14:25:36.456Z,4.70
2019-03-09T14:28:04.733Z,4.72
2019-03-09T14:30:33.074Z,4.00
2019-03-09T14:33:01.370Z,5.10
2019-03-09T14:35:29.602Z,4.05
2019-03-09T14:37:57.884Z,2.00
2019-03-09T14:40:26.152Z,1.85
2019-03-09T14:42:54.384Z,1.60
2019-03-09T14:45:23.755Z,1.40
2019-03-09T14:47:52.028Z,1.45
2019-03-09T14:50:20.261Z,1.17
2019-03-09T14:52:48.700Z,1.00
2019-03-09T14:55:17.248Z,0.57
2019-03-09T14:57:45.539Z,1.10
2019-03-09T15:00:28.137Z,1.27
2019-03-09T15:02:56.388Z,1.10
2019-03-09T15:05:24.694Z,1.20
2019-03-09T15:07:53.032Z,1.37
2019-03-09T15:10:21.568Z,1.50
2019-03-09T15:12:49.844Z,1.70
2019-03-09T15:15:19.640Z,1.92
2019-03-09T15:17:48.236Z,2.72
2019-03-09T15:20:16.955Z,2.70
2019-03-09T15:22:45.251Z,2.77
2019-03-09T15:25:19.117Z,3.77
2019-03-09T15:27:47.365Z,3.47
2019-03-09T15:30:19.968Z,4.65
2019-03-09T15:32:48.290Z,5.80
2019-03-09T15:35:17.272Z,4.92
2019-03-09T15:37:45.920Z,4.45
2019-03-09T15:40:17.223Z,5.03
2019-03-09T15:42:45.888Z,3.72
2019-03-09T15:45:17.810Z,3.37
2019-03-09T15:47:46.123Z,4.10
2019-03-09T15:50:22.698Z,2.00
2019-03-09T15:52:52.596Z,2.00
2019-03-09T15:55:21.020Z,2.37
2019-03-09T15:57:49.356Z,2.70
2019-03-09T16:00:24.401Z,1.92
2019-03-09T16:02:52.852Z,1.57
2019-03-09T16:05:21.416Z,1.00
2019-03-09T16:07:50.004Z,2.85
2019-03-09T16:13:47.668Z,1.75
2019-03-09T16:16:15.972Z,2.60
2019-03-09T16:18:44.209Z,1.98
2019-03-09T16:21:12.460Z,2.00
2019-03-09T16:23:40.736Z,1.80
2019-03-09T16:26:09.412Z,1.35
2019-03-09T16:28:37.660Z,1.92
2019-03-09T16:31:05.899Z,1.55
2019-03-09T16:33:34.141Z,1.25
2019-03-09T16:36:02.415Z,1.10
2019-03-09T16:38:30.809Z,1.70
2019-03-09T16:40:59.081Z,1.30
2019-03-09T16:43:27.369Z,1.07
2019-03-09T16:45:55.618Z,1.60
2019-03-09T16:48:23.905Z,1.30
2019-03-09T16:50:52.149Z,1.60
2019-03-09T16:53:20.745Z,1.37
2019-03-09T16:55:48.986Z,1.17
2019-03-09T16:58:17.587Z,1.75
2019-03-09T17:00:45.872Z,1.42
2019-03-09T17:03:14.138Z,1.10
2019-03-09T17:05:42.429Z,1.70
2019-03-09T17:08:11.129Z,1.50
2019-03-09T17:10:39.379Z,1.95
2019-03-09T17:13:07.624Z,1.72
2019-03-09T17:15:35.868Z,1.50
2019-03-09T17:18:04.116Z,1.80
2019-03-09T17:20:32.356Z,1.65
2019-03-09T17:23:00.608Z,1.90
2019-03-09T17:25:28.950Z,1.67
2019-03-09T17:27:58.457Z,1.30
2019-03-09T17:30:26.700Z,1.70
2019-03-09T17:32:54.941Z,1.95
2019-03-09T17:35:23.487Z,2.02
2019-03-09T17:37:51.708Z,1.85
2019-03-09T17:40:19.947Z,1.60
2019-03-09T17:42:48.529Z,1.82
2019-03-09T17:45:22.129Z,1.80
2019-03-09T17:47:50.481Z,1.87
2019-03-09T17:50:18.708Z,1.60
2019-03-09T17:52:46.964Z,3.35
2019-03-09T17:55:15.251Z,2.12
2019-03-09T17:57:43.494Z,2.58
2019-03-09T18:00:18.560Z,1.72
2019-03-09T18:02:46.796Z,2.02
2019-03-09T18:05:15.076Z,1.60
2019-03-09T18:07:43.666Z,1.57
2019-03-09T18:10:27.545Z,2.10
2019-03-09T18:12:55.921Z,2.17
2019-03-09T18:15:24.209Z,2.25
2019-03-09T18:17:52.509Z,2.27
2019-03-09T18:20:20.802Z,2.27
2019-03-09T18:22:49.032Z,2.77
2019-03-09T18:25:17.288Z,1.62
2019-03-09T18:27:45.560Z,1.92
2019-03-09T18:30:13.807Z,1.70
2019-03-09T18:32:42.048Z,2.12
2019-03-09T18:35:11.268Z,2.00
2019-03-09T18:37:39.512Z,1.80
2019-03-09T18:40:13.245Z,1.85
2019-03-09T18:42:41.515Z,2.83
2019-03-09T18:45:17.943Z,2.12
2019-03-09T18:47:46.194Z,1.80
2019-03-09T18:50:14.431Z,2.17
2019-03-09T18:52:43.102Z,2.35
2019-03-09T18:55:11.410Z,2.15
2019-03-09T18:57:40.039Z,1.85
2019-03-09T19:00:14.767Z,2.08
2019-03-09T19:02:43.021Z,1.70
2019-03-09T19:05:11.305Z,2.27
2019-03-09T19:07:39.541Z,1.72
2019-03-09T19:10:15.928Z,1.92
2019-03-09T19:12:44.549Z,1.57
2019-03-09T19:15:17.028Z,2.22
2019-03-09T19:17:45.413Z,2.55
2019-03-09T19:20:18.630Z,2.17
2019-03-09T19:22:46.946Z,2.58
2019-03-09T19:25:15.843Z,1.82
2019-03-09T19:27:44.084Z,2.17
2019-03-09T19:30:22.484Z,2.35
2019-03-09T19:32:59.810Z,2.67
2019-03-09T19:35:20.805Z,1.70
2019-03-09T19:37:49.091Z,2.35
2019-03-09T19:40:21.394Z,2.40
2019-03-09T19:42:49.688Z,1.90
2019-03-09T19:45:19.346Z,3.52
2019-03-09T19:47:47.579Z,2.33
2019-03-09T19:50:20.247Z,2.47
2019-03-09T19:52:48.792Z,2.08
2019-03-09T19:55:17.040Z,2.27
2019-03-09T19:57:45.337Z,2.72
2019-03-09T20:00:19.873Z,2.35
2019-03-09T20:02:48.106Z,2.30
2019-03-09T20:05:16.735Z,2.58
2019-03-09T20:07:44.997Z,2.90
2019-03-09T20:10:19.637Z,2.60
2019-03-09T20:12:47.896Z,1.95
2019-03-09T20:15:17.351Z,3.05
2019-03-09T20:17:46.090Z,2.62
2019-03-09T20:20:16.569Z,2.40
2019-03-09T20:22:44.938Z,2.22
2019-03-09T20:25:13.188Z,2.08
2019-03-09T20:27:41.773Z,3.00
2019-03-09T20:30:12.717Z,2.75
2019-03-09T20:32:40.969Z,2.00
2019-03-09T20:35:09.564Z,2.85
2019-03-09T20:37:37.824Z,3.10
2019-03-09T20:40:08.904Z,2.67
2019-03-09T20:42:37.258Z,2.52
2019-03-09T20:45:08.792Z,2.87
2019-03-09T20:47:37.287Z,2.92
2019-03-09T20:50:11.120Z,2.27
2019-03-09T20:52:39.366Z,2.72
2019-03-09T20:55:08.599Z,2.83
2019-03-09T20:57:36.907Z,2.72
2019-03-09T21:00:13.731Z,2.62
2019-03-09T21:02:42.057Z,2.52
2019-03-09T21:05:10.306Z,2.47
2019-03-09T21:07:38.553Z,3.62
2019-03-09T21:10:13.178Z,2.50
2019-03-09T21:13:04.547Z,2.62
2019-03-09T21:15:32.795Z,2.55
2019-03-09T21:18:01.039Z,2.33
2019-03-09T21:20:29.339Z,2.45
2019-03-09T21:22:57.658Z,4.35
2019-03-09T21:25:26.192Z,3.72
2019-03-09T21:27:54.448Z,3.80
2019-03-09T21:30:22.706Z,3.00
2019-03-09T21:32:50.951Z,2.92
2019-03-09T21:35:19.218Z,3.45
2019-03-09T21:37:47.519Z,2.72
2019-03-09T21:40:16.079Z,2.75
2019-03-09T21:42:44.321Z,3.02
2019-03-09T21:45:14.471Z,3.55
2019-03-09T21:47:42.779Z,3.58
2019-03-09T21:50:12.760Z,4.05
2019-03-09T21:52:40.996Z,3.52
2019-03-09T21:55:12.269Z,2.85
2019-03-09T21:57:40.848Z,2.90
2019-03-09T22:00:20.396Z,3.55
2019-03-09T22:02:50.391Z,3.55
2019-03-09T22:05:19.017Z,3.62
2019-03-09T22:07:47.256Z,3.65
2019-03-09T22:10:15.543Z,4.10
2019-03-09T22:12:43.783Z,3.10
2019-03-09T22:15:17.337Z,3.58
2019-03-09T22:17:45.576Z,3.92
2019-03-09T22:20:14.311Z,3.40
2019-03-09T22:22:42.911Z,3.17
2019-03-09T22:25:12.447Z,3.00
2019-03-09T22:27:41.098Z,3.98
2019-03-09T22:30:15.617Z,3.40
2019-03-09T22:32:44.114Z,3.02
2019-03-09T22:35:12.887Z,2.95
2019-03-09T22:37:41.132Z,3.75
2019-03-09T22:40:12.185Z,3.12
2019-03-09T22:42:40.756Z,3.15
2019-03-09T22:45:13.669Z,3.27
2019-03-09T22:47:41.921Z,3.22
2019-03-09T22:50:21.565Z,2.80
2019-03-09T22:52:49.816Z,3.15
2019-03-09T22:55:18.068Z,3.70
2019-03-09T22:57:46.376Z,2.80
2019-03-09T23:00:24.701Z,2.77
2019-03-09T23:02:52.963Z,3.35
2019-03-09T23:05:21.280Z,2.95
2019-03-09T23:07:49.516Z,3.47
2019-03-09T23:10:19.269Z,3.50
2019-03-09T23:12:47.584Z,2.70
2019-03-09T23:15:16.906Z,4.17
2019-03-09T23:17:45.377Z,2.95
2019-03-09T23:20:15.079Z,2.87
2019-03-09T23:22:43.348Z,2.70
2019-03-09T23:25:12.250Z,3.15
2019-03-09T23:27:41.096Z,3.10
2019-03-09T23:30:20.208Z,2.90
2019-03-09T23:32:48.515Z,2.60
2019-03-09T23:35:17.162Z,3.35
2019-03-09T23:37:46.640Z,2.80
2019-03-09T23:40:17.637Z,2.72
2019-03-09T23:42:45.881Z,3.00
2019-03-09T23:45:16.378Z,3.25
2019-03-09T23:47:44.620Z,2.47
2019-03-09T23:50:14.629Z,2.70
2019-03-09T23:52:42.864Z,2.90
2019-03-09T23:55:21.464Z,3.25
2019-03-09T23:57:41.340Z,3.27
